Terminal Aerodrome Forecast
Issued by NWS

Home | Current Version | Previous Version | Graphics & Text | Print | Product List | Glossary On
Versions: 1 2 3 4 5 6 7 8 9 10 11 12 13
000
FTUS43 KICT 241740
TAFCNU
TAF
KCNU 241740Z 2418/2518 31013KT P6SM OVC015
     FM242300 27008KT P6SM BKN015
     FM250200 19007KT P6SM SKC
      TEMPO 2502/2506 4SM BR
     FM251600 18019G26KT P6SM BKN250=

USA.gov is the U.S. government's official web portal to all federal, state and local government web resources and services.